Armstrong, Illinois
Current Conditions -  °F | °C
As of 2:50 PM on Friday 31 Oct 2014 (Local Time) from KTIP Reporting Station
Broken Clouds Broken Clouds  
Wind Chill: 34°   Ceiling: 4600
Heat Index: 43°   Visibility: 10mi
Dew Point: 25°   Wind: 22mph
Humidity: 49%   Direction: 340°NNW
Pressure: 30.16"   Gusts: 36mph
Location:  40.31°N, 87.88°W
Report Text: KTIP 311950Z AUTO 34019G31KT 10SM BKN046 BKN095 06/M04 A3016 RMK AO2 T00601040
Loading
Personal Weather Stations






























Interactive Weather Map
Tropical Storm Tracking
New forecast layout! Learn more

10-Day Weather Forecast

Advertisements
Track Severe Weather on mobile